Time;durP1;ratioP1;P1;durP2;ratioP2;P2;SDS_P1;SDS_P2;PMS_P1;PMS_P2;Temp;Humidity;BMP_temperature;BMP_pressure;BME280_temperature;BME280_humidity;BME280_pressure;Samples;Min_cycle;Max_cycle;Signal;HPM_P1;HPM_P2
2020/04/16 00:00:13;;;;;;;8.05;5.3;;;;;;;5.94;48.53418;95485.91;;;;
2020/04/16 00:01:14;;;;;;;8.05;5.3;;;;;;;5.94;48.53418;95485.91;;;;
2020/04/16 00:02:14;;;;;;;7.55;4.950001;;;;;;;5.89;48.77344;95481.26;;;;
2020/04/16 00:03:15;;;;;;;7.55;4.950001;;;;;;;5.89;48.77344;95481.26;;;;
2020/04/16 00:04:15;;;;;;;7.55;4.950001;;;;;;;5.89;48.77344;95481.26;;;;
2020/04/16 00:05:16;;;;;;;10.2;4.85;;;;;;;5.86;48.96191;95485.69;;;;
2020/04/16 00:07:26;;;;;;;10.2;4.85;;;;;;;5.86;48.96191;95485.69;;;;
2020/04/16 00:08:28;;;;;;;6.35;4.85;;;;;;;5.8;49.19043;95477.91;;;;
2020/04/16 00:09:28;;;;;;;6.35;4.85;;;;;;;5.8;49.19043;95477.91;;;;
2020/04/16 00:10:29;;;;;;;8.299999;4.95;;;;;;;5.76;49.44238;95477.08;;;;
2020/04/16 00:11:30;;;;;;;8.299999;4.95;;;;;;;5.76;49.44238;95477.08;;;;
2020/04/16 00:12:30;;;;;;;8.299999;4.95;;;;;;;5.76;49.44238;95477.08;;;;
2020/04/16 00:13:31;;;;;;;8.300001;5.149999;;;;;;;5.72;49.63867;95477.28;;;;
2020/04/16 00:14:31;;;;;;;8.300001;5.149999;;;;;;;5.72;49.63867;95477.28;;;;
2020/04/16 00:15:31;;;;;;;8.4;5.05;;;;;;;5.68;49.8584;95480.45;;;;
2020/04/16 00:16:32;;;;;;;8.4;5.05;;;;;;;5.68;49.8584;95480.45;;;;
2020/04/16 00:17:32;;;;;;;8.4;5.05;;;;;;;5.68;49.8584;95480.45;;;;
2020/04/16 00:18:33;;;;;;;8.749999;5.3;;;;;;;5.63;50.1084;95472.2;;;;
2020/04/16 00:19:33;;;;;;;8.749999;5.3;;;;;;;5.63;50.1084;95472.2;;;;
2020/04/16 00:20:33;;;;;;;8.749999;5.3;;;;;;;5.63;50.1084;95472.2;;;;
2020/04/16 00:21:34;;;;;;;7.95;4.8;;;;;;;5.59;50.31738;95474.46;;;;
2020/04/16 00:22:34;;;;;;;7.95;4.8;;;;;;;5.59;50.31738;95474.46;;;;
2020/04/16 00:23:35;;;;;;;7.5;4.75;;;;;;;5.55;50.58984;95473.21;;;;
2020/04/16 00:24:35;;;;;;;7.5;4.75;;;;;;;5.55;50.58984;95473.21;;;;
2020/04/16 00:25:36;;;;;;;7.5;4.75;;;;;;;5.55;50.58984;95473.21;;;;
2020/04/16 00:26:36;;;;;;;7.5;4.75;;;;;;;5.55;50.58984;95473.21;;;;
2020/04/16 00:27:37;;;;;;;7.5;4.75;;;;;;;5.55;50.58984;95473.21;;;;
2020/04/16 00:28:37;;;;;;;7.5;4.75;;;;;;;5.55;50.58984;95473.21;;;;
2020/04/16 00:29:37;;;;;;;7.5;4.75;;;;;;;5.55;50.58984;95473.21;;;;
2020/04/16 00:30:38;;;;;;;7.5;4.75;;;;;;;5.55;50.58984;95473.21;;;;
2020/04/16 00:31:38;;;;;;;7.5;4.75;;;;;;;5.55;50.58984;95473.21;;;;
2020/04/16 00:32:39;;;;;;;7.5;4.75;;;;;;;5.55;50.58984;95473.21;;;;
2020/04/16 00:33:39;;;;;;;7.5;4.75;;;;;;;5.55;50.58984;95473.21;;;;
2020/04/16 00:34:40;;;;;;;8.799999;4.5;;;;;;;5.03;49.2627;95459.99;;;;
2020/04/16 00:35:40;;;;;;;8.799999;4.5;;;;;;;5.03;49.2627;95459.99;;;;
2020/04/16 00:36:41;;;;;;;8.45;4.5;;;;;;;4.99;49.5752;95457.47;;;;
2020/04/16 00:37:41;;;;;;;8.45;4.5;;;;;;;4.99;49.5752;95457.47;;;;
2020/04/16 00:38:41;;;;;;;8.45;4.5;;;;;;;4.99;49.5752;95457.47;;;;
2020/04/16 00:39:42;;;;;;;7.799999;5.000001;;;;;;;5;49.91797;95464.49;;;;
2020/04/16 00:40:42;;;;;;;7.799999;5.000001;;;;;;;5;49.91797;95464.49;;;;
2020/04/16 00:41:43;;;;;;;7.799999;5.000001;;;;;;;5;49.91797;95464.49;;;;
2020/04/16 00:42:43;;;;;;;5.500001;3.9;;;;;;;5.02;50.44141;95462.45;;;;
2020/04/16 00:43:44;;;;;;;5.500001;3.9;;;;;;;5.02;50.44141;95462.45;;;;
2020/04/16 00:44:44;;;;;;;6.299999;4.349999;;;;;;;5.03;50.81543;95460.91;;;;
2020/04/16 00:45:44;;;;;;;6.299999;4.349999;;;;;;;5.03;50.81543;95460.91;;;;
2020/04/16 00:46:45;;;;;;;6.299999;4.349999;;;;;;;5.03;50.81543;95460.91;;;;
2020/04/16 00:47:46;;;;;;;6.799999;4.3;;;;;;;5.03;51.14453;95457.4;;;;
2020/04/16 00:48:46;;;;;;;6.799999;4.3;;;;;;;5.03;51.14453;95457.4;;;;
2020/04/16 00:49:46;;;;;;;6.799999;4.3;;;;;;;5.03;51.14453;95457.4;;;;
2020/04/16 00:50:47;;;;;;;6.799999;4.3;;;;;;;5.03;51.14453;95457.4;;;;
2020/04/16 00:51:47;;;;;;;6.799999;4.3;;;;;;;5.03;51.14453;95457.4;;;;
2020/04/16 00:52:48;;;;;;;6.799999;4.3;;;;;;;5.03;51.14453;95457.4;;;;
2020/04/16 00:53:48;;;;;;;6.799999;4.3;;;;;;;5.03;51.14453;95457.4;;;;
2020/04/16 00:54:49;;;;;;;6.799999;4.3;;;;;;;5.03;51.14453;95457.4;;;;
2020/04/16 00:55:49;;;;;;;6.799999;4.3;;;;;;;5.03;51.14453;95457.4;;;;
2020/04/16 00:56:50;;;;;;;6.799999;4.3;;;;;;;5.03;51.14453;95457.4;;;;
2020/04/16 00:57:50;;;;;;;7.6;4.05;;;;;;;4.59;49.94434;95439.97;;;;
2020/04/16 00:58:51;;;;;;;7.6;4.05;;;;;;;4.59;49.94434;95439.97;;;;
2020/04/16 00:59:51;;;;;;;7.6;4.05;;;;;;;4.59;49.94434;95439.97;;;;
2020/04/16 01:00:51;;;;;;;7.45;4;;;;;;;4.56;50.32422;95441.67;;;;
2020/04/16 01:01:52;;;;;;;7.45;4;;;;;;;4.56;50.32422;95441.67;;;;
2020/04/16 01:02:52;;;;;;;7.45;4;;;;;;;4.56;50.32422;95441.67;;;;
2020/04/16 01:03:53;;;;;;;7.95;4.199999;;;;;;;4.59;50.81641;95445.31;;;;
2020/04/16 01:04:53;;;;;;;7.95;4.199999;;;;;;;4.59;50.81641;95445.31;;;;
2020/04/16 01:05:54;;;;;;;6.35;4.3;;;;;;;4.61;51.30664;95441.91;;;;
2020/04/16 01:07:26;;;;;;;6.35;4.3;;;;;;;4.61;51.30664;95441.91;;;;
2020/04/16 01:08:27;;;;;;;6.35;4.3;;;;;;;4.61;51.30664;95441.91;;;;
2020/04/16 01:09:27;;;;;;;6.35;4.3;;;;;;;4.61;51.30664;95441.91;;;;
2020/04/16 01:10:28;;;;;;;6.35;4.3;;;;;;;4.61;51.30664;95441.91;;;;
2020/04/16 01:11:28;;;;;;;6.35;4.3;;;;;;;4.61;51.30664;95441.91;;;;
2020/04/16 01:12:28;;;;;;;6.35;4.3;;;;;;;4.61;51.30664;95441.91;;;;
2020/04/16 01:13:29;;;;;;;6.35;4.3;;;;;;;4.61;51.30664;95441.91;;;;
2020/04/16 01:14:29;;;;;;;6.35;4.3;;;;;;;4.61;51.30664;95441.91;;;;
2020/04/16 01:15:30;;;;;;;6.35;4.3;;;;;;;4.61;51.30664;95441.91;;;;
2020/04/16 01:16:30;;;;;;;7.149999;4.05;;;;;;;4.29;50.25;95434.89;;;;
2020/04/16 01:17:31;;;;;;;7.149999;4.05;;;;;;;4.29;50.25;95434.89;;;;
2020/04/16 01:18:31;;;;;;;7.149999;4.05;;;;;;;4.29;50.25;95434.89;;;;
2020/04/16 01:19:33;;;;;;;8.849999;4;;;;;;;4.28;50.69434;95438.18;;;;
2020/04/16 01:20:34;;;;;;;8.849999;4;;;;;;;4.28;50.69434;95438.18;;;;
2020/04/16 01:21:36;;;;;;;8.849999;4;;;;;;;4.28;50.69434;95438.18;;;;
2020/04/16 01:22:36;;;;;;;4.900001;3.65;;;;;;;4.33;51.16797;95439.67;;;;
2020/04/16 01:23:37;;;;;;;4.900001;3.65;;;;;;;4.33;51.16797;95439.67;;;;
2020/04/16 01:24:37;;;;;;;5.15;3.7;;;;;;;4.38;51.59863;95428.38;;;;
2020/04/16 01:25:38;;;;;;;5.15;3.7;;;;;;;4.38;51.59863;95428.38;;;;
2020/04/16 01:26:38;;;;;;;5.15;3.7;;;;;;;4.38;51.59863;95428.38;;;;
2020/04/16 01:27:39;;;;;;;5.15;3.7;;;;;;;4.38;51.59863;95428.38;;;;
2020/04/16 01:28:39;;;;;;;5.15;3.7;;;;;;;4.38;51.59863;95428.38;;;;
2020/04/16 01:29:39;;;;;;;5.15;3.7;;;;;;;4.38;51.59863;95428.38;;;;
2020/04/16 01:30:40;;;;;;;5.15;3.7;;;;;;;4.38;51.59863;95428.38;;;;
2020/04/16 01:31:40;;;;;;;5.15;3.7;;;;;;;4.38;51.59863;95428.38;;;;
2020/04/16 01:32:41;;;;;;;5.15;3.7;;;;;;;4.38;51.59863;95428.38;;;;
2020/04/16 01:33:41;;;;;;;5.15;3.7;;;;;;;4.38;51.59863;95428.38;;;;
2020/04/16 01:34:42;;;;;;;5.15;3.7;;;;;;;4.38;51.59863;95428.38;;;;
2020/04/16 01:35:42;;;;;;;6.5;3.2;;;;;;;4.1;50.49219;95424.88;;;;
2020/04/16 01:36:42;;;;;;;6.5;3.2;;;;;;;4.1;50.49219;95424.88;;;;
2020/04/16 01:37:43;;;;;;;6.8;3.7;;;;;;;4.09;50.875;95424.46;;;;
2020/04/16 01:38:43;;;;;;;6.8;3.7;;;;;;;4.09;50.875;95424.46;;;;
2020/04/16 01:39:44;;;;;;;6.8;3.7;;;;;;;4.09;50.875;95424.46;;;;
2020/04/16 01:40:44;;;;;;;6.8;3.7;;;;;;;4.09;50.875;95424.46;;;;
2020/04/16 01:41:45;;;;;;;6.8;3.7;;;;;;;4.09;50.875;95424.46;;;;
2020/04/16 01:42:45;;;;;;;6.8;3.7;;;;;;;4.09;50.875;95424.46;;;;
2020/04/16 01:43:45;;;;;;;6.8;3.7;;;;;;;4.09;50.875;95424.46;;;;
2020/04/16 01:44:46;;;;;;;6.8;3.7;;;;;;;4.09;50.875;95424.46;;;;
2020/04/16 01:45:46;;;;;;;6.8;3.7;;;;;;;4.09;50.875;95424.46;;;;
2020/04/16 01:46:47;;;;;;;6.8;3.7;;;;;;;4.09;50.875;95424.46;;;;
2020/04/16 01:47:47;;;;;;;6.8;3.7;;;;;;;4.09;50.875;95424.46;;;;
2020/04/16 01:48:48;;;;;;;5.75;3.2;;;;;;;3.87;50.03125;95423.32;;;;
2020/04/16 01:49:48;;;;;;;5.75;3.2;;;;;;;3.87;50.03125;95423.32;;;;
2020/04/16 01:50:48;;;;;;;6.55;3.6;;;;;;;3.86;50.45508;95418.51;;;;
2020/04/16 01:51:49;;;;;;;6.55;3.6;;;;;;;3.86;50.45508;95418.51;;;;
2020/04/16 01:52:49;;;;;;;6.55;3.6;;;;;;;3.86;50.45508;95418.51;;;;
2020/04/16 01:53:50;;;;;;;6.55;3.6;;;;;;;3.86;50.45508;95418.51;;;;
2020/04/16 01:54:50;;;;;;;6.55;3.6;;;;;;;3.86;50.45508;95418.51;;;;
2020/04/16 01:55:50;;;;;;;6.55;3.6;;;;;;;3.86;50.45508;95418.51;;;;
2020/04/16 01:56:51;;;;;;;6.55;3.6;;;;;;;3.86;50.45508;95418.51;;;;
2020/04/16 01:57:51;;;;;;;6.55;3.6;;;;;;;3.86;50.45508;95418.51;;;;
2020/04/16 01:58:52;;;;;;;6.55;3.6;;;;;;;3.86;50.45508;95418.51;;;;
2020/04/16 01:59:52;;;;;;;6.55;3.6;;;;;;;3.86;50.45508;95418.51;;;;
2020/04/16 02:00:53;;;;;;;6.55;3.6;;;;;;;3.86;50.45508;95418.51;;;;
2020/04/16 02:01:53;;;;;;;6.049999;3.1;;;;;;;3.64;49.80273;95398.58;;;;
2020/04/16 02:02:54;;;;;;;6.049999;3.1;;;;;;;3.64;49.80273;95398.58;;;;
2020/04/16 02:03:54;;;;;;;6.049999;3.1;;;;;;;3.64;49.80273;95398.58;;;;
2020/04/16 02:04:55;;;;;;;5.15;3.4;;;;;;;3.65;50.30273;95395.4;;;;
2020/04/16 02:05:55;;;;;;;5.15;3.4;;;;;;;3.65;50.30273;95395.4;;;;
2020/04/16 02:06:55;;;;;;;5.15;3.4;;;;;;;3.65;50.30273;95395.4;;;;
2020/04/16 02:07:56;;;;;;;5.15;3.4;;;;;;;3.65;50.30273;95395.4;;;;
2020/04/16 02:08:56;;;;;;;5.15;3.4;;;;;;;3.65;50.30273;95395.4;;;;
2020/04/16 02:09:57;;;;;;;5.15;3.4;;;;;;;3.65;50.30273;95395.4;;;;
2020/04/16 02:10:57;;;;;;;5.15;3.4;;;;;;;3.65;50.30273;95395.4;;;;
2020/04/16 02:11:57;;;;;;;5.15;3.4;;;;;;;3.65;50.30273;95395.4;;;;
2020/04/16 02:12:58;;;;;;;5.15;3.4;;;;;;;3.65;50.30273;95395.4;;;;
2020/04/16 02:13:58;;;;;;;5.15;3.4;;;;;;;3.65;50.30273;95395.4;;;;
2020/04/16 02:14:59;;;;;;;7.75;3.3;;;;;;;3.45;49.86621;95376.5;;;;
2020/04/16 02:15:59;;;;;;;7.75;3.3;;;;;;;3.45;49.86621;95376.5;;;;
2020/04/16 02:17:00;;;;;;;7.75;3.3;;;;;;;3.45;49.86621;95376.5;;;;
2020/04/16 02:18:00;;;;;;;6.149999;3.75;;;;;;;3.46;50.40625;95381.34;;;;
2020/04/16 02:19:01;;;;;;;6.149999;3.75;;;;;;;3.46;50.40625;95381.34;;;;
2020/04/16 02:20:01;;;;;;;6.149999;3.75;;;;;;;3.46;50.40625;95381.34;;;;
2020/04/16 02:21:02;;;;;;;6.149999;3.75;;;;;;;3.46;50.40625;95381.34;;;;
2020/04/16 02:22:02;;;;;;;6.149999;3.75;;;;;;;3.46;50.40625;95381.34;;;;
2020/04/16 02:23:03;;;;;;;6.149999;3.75;;;;;;;3.46;50.40625;95381.34;;;;
2020/04/16 02:24:03;;;;;;;6.149999;3.75;;;;;;;3.46;50.40625;95381.34;;;;
2020/04/16 02:25:03;;;;;;;6.149999;3.75;;;;;;;3.46;50.40625;95381.34;;;;
2020/04/16 02:26:04;;;;;;;6.149999;3.75;;;;;;;3.46;50.40625;95381.34;;;;
2020/04/16 02:27:05;;;;;;;6.149999;3.75;;;;;;;3.46;50.40625;95381.34;;;;
2020/04/16 02:28:05;;;;;;;6.05;3.35;;;;;;;3.29;49.93066;95400.87;;;;
2020/04/16 02:29:06;;;;;;;6.05;3.35;;;;;;;3.29;49.93066;95400.87;;;;
2020/04/16 02:30:06;;;;;;;6.05;3.35;;;;;;;3.29;49.93066;95400.87;;;;
2020/04/16 02:31:06;;;;;;;5.050001;3.55;;;;;;;3.31;50.5166;95404.99;;;;
2020/04/16 02:32:07;;;;;;;5.050001;3.55;;;;;;;3.31;50.5166;95404.99;;;;
2020/04/16 02:33:07;;;;;;;5.050001;3.55;;;;;;;3.31;50.5166;95404.99;;;;
2020/04/16 02:34:08;;;;;;;5.050001;3.55;;;;;;;3.31;50.5166;95404.99;;;;
2020/04/16 02:35:09;;;;;;;5.050001;3.55;;;;;;;3.31;50.5166;95404.99;;;;
2020/04/16 02:36:09;;;;;;;5.050001;3.55;;;;;;;3.31;50.5166;95404.99;;;;
2020/04/16 02:37:09;;;;;;;5.050001;3.55;;;;;;;3.31;50.5166;95404.99;;;;
2020/04/16 02:38:10;;;;;;;5.050001;3.55;;;;;;;3.31;50.5166;95404.99;;;;
2020/04/16 02:39:10;;;;;;;5.050001;3.55;;;;;;;3.31;50.5166;95404.99;;;;
2020/04/16 02:40:14;;;;;;;5.050001;3.55;;;;;;;3.31;50.5166;95404.99;;;;
2020/04/16 02:41:20;;;;;;;4.5;3.3;;;;;;;3.15;50.00098;95400.71;;;;
2020/04/16 02:42:23;;;;;;;4.5;3.3;;;;;;;3.15;50.00098;95400.71;;;;
2020/04/16 02:44:31;;;;;;;4.5;3.3;;;;;;;3.15;50.00098;95400.71;;;;
2020/04/16 02:45:32;;;;;;;7.4;3.8;;;;;;;3.17;50.60742;95394.69;;;;
2020/04/16 02:46:32;;;;;;;7.4;3.8;;;;;;;3.17;50.60742;95394.69;;;;
2020/04/16 02:47:33;;;;;;;7.4;3.8;;;;;;;3.17;50.60742;95394.69;;;;
2020/04/16 02:48:33;;;;;;;7.4;3.8;;;;;;;3.17;50.60742;95394.69;;;;
2020/04/16 02:49:33;;;;;;;7.4;3.8;;;;;;;3.17;50.60742;95394.69;;;;
2020/04/16 02:50:34;;;;;;;7.4;3.8;;;;;;;3.17;50.60742;95394.69;;;;
2020/04/16 02:51:34;;;;;;;7.4;3.8;;;;;;;3.17;50.60742;95394.69;;;;
2020/04/16 02:52:35;;;;;;;7.4;3.8;;;;;;;3.17;50.60742;95394.69;;;;
2020/04/16 02:53:35;;;;;;;7.4;3.8;;;;;;;3.17;50.60742;95394.69;;;;
2020/04/16 02:54:36;;;;;;;5.599999;3.45;;;;;;;3;50.09961;95390.68;;;;
2020/04/16 02:55:36;;;;;;;5.599999;3.45;;;;;;;3;50.09961;95390.68;;;;
2020/04/16 02:56:36;;;;;;;5.599999;3.45;;;;;;;3;50.09961;95390.68;;;;
2020/04/16 02:57:37;;;;;;;5.2;3.45;;;;;;;3.01;50.73438;95398.99;;;;
2020/04/16 02:58:37;;;;;;;5.2;3.45;;;;;;;3.01;50.73438;95398.99;;;;
2020/04/16 02:59:38;;;;;;;5.2;3.45;;;;;;;3.01;50.73438;95398.99;;;;
2020/04/16 03:00:38;;;;;;;5.2;3.45;;;;;;;3.01;50.73438;95398.99;;;;
2020/04/16 03:01:39;;;;;;;5.2;3.45;;;;;;;3.01;50.73438;95398.99;;;;
2020/04/16 03:02:39;;;;;;;5.2;3.45;;;;;;;3.01;50.73438;95398.99;;;;
2020/04/16 03:03:39;;;;;;;5.2;3.45;;;;;;;3.01;50.73438;95398.99;;;;
2020/04/16 03:04:40;;;;;;;5.2;3.45;;;;;;;3.01;50.73438;95398.99;;;;
2020/04/16 03:05:42;;;;;;;5.2;3.45;;;;;;;3.01;50.73438;95398.99;;;;
2020/04/16 03:06:42;;;;;;;5.2;3.45;;;;;;;3.01;50.73438;95398.99;;;;
2020/04/16 03:07:42;;;;;;;5.699999;3.7;;;;;;;2.84;50.35547;95402.78;;;;
2020/04/16 03:08:43;;;;;;;5.699999;3.7;;;;;;;2.84;50.35547;95402.78;;;;
2020/04/16 03:09:43;;;;;;;5.699999;3.7;;;;;;;2.84;50.35547;95402.78;;;;
2020/04/16 03:10:44;;;;;;;5.8;3.7;;;;;;;2.87;51.00586;95398.43;;;;
2020/04/16 03:11:44;;;;;;;5.8;3.7;;;;;;;2.87;51.00586;95398.43;;;;
2020/04/16 03:12:44;;;;;;;5.8;3.7;;;;;;;2.87;51.00586;95398.43;;;;
2020/04/16 03:13:45;;;;;;;5.8;3.7;;;;;;;2.87;51.00586;95398.43;;;;
2020/04/16 03:14:45;;;;;;;5.8;3.7;;;;;;;2.87;51.00586;95398.43;;;;
2020/04/16 03:15:46;;;;;;;5.8;3.7;;;;;;;2.87;51.00586;95398.43;;;;
2020/04/16 03:16:46;;;;;;;5.8;3.7;;;;;;;2.87;51.00586;95398.43;;;;
2020/04/16 03:17:47;;;;;;;5.8;3.7;;;;;;;2.87;51.00586;95398.43;;;;
2020/04/16 03:18:47;;;;;;;5.8;3.7;;;;;;;2.87;51.00586;95398.43;;;;
2020/04/16 03:19:48;;;;;;;5.8;3.7;;;;;;;2.87;51.00586;95398.43;;;;
2020/04/16 03:20:48;;;;;;;5.8;3.7;;;;;;;2.87;51.00586;95398.43;;;;
2020/04/16 03:21:48;;;;;;;3.8;3.2;;;;;;;2.77;50.63379;95406.4;;;;
2020/04/16 03:22:49;;;;;;;3.8;3.2;;;;;;;2.77;50.63379;95406.4;;;;
2020/04/16 03:23:49;;;;;;;3.8;3.2;;;;;;;2.77;50.63379;95406.4;;;;
2020/04/16 03:24:50;;;;;;;3.8;3.2;;;;;;;2.77;50.63379;95406.4;;;;
2020/04/16 03:25:50;;;;;;;3.8;3.2;;;;;;;2.77;50.63379;95406.4;;;;
2020/04/16 03:26:50;;;;;;;3.8;3.2;;;;;;;2.77;50.63379;95406.4;;;;
2020/04/16 03:27:51;;;;;;;3.8;3.2;;;;;;;2.77;50.63379;95406.4;;;;
2020/04/16 03:28:51;;;;;;;3.8;3.2;;;;;;;2.77;50.63379;95406.4;;;;
2020/04/16 03:29:52;;;;;;;3.8;3.2;;;;;;;2.77;50.63379;95406.4;;;;
2020/04/16 03:30:52;;;;;;;3.8;3.2;;;;;;;2.77;50.63379;95406.4;;;;
2020/04/16 03:31:53;;;;;;;4.849999;3.3;;;;;;;2.66;50.33496;95393.53;;;;
2020/04/16 03:32:53;;;;;;;4.849999;3.3;;;;;;;2.66;50.33496;95393.53;;;;
2020/04/16 03:33:53;;;;;;;4.849999;3.3;;;;;;;2.66;50.33496;95393.53;;;;
2020/04/16 03:34:54;;;;;;;4.849999;3.3;;;;;;;2.66;50.33496;95393.53;;;;
2020/04/16 03:35:54;;;;;;;4.849999;3.3;;;;;;;2.66;50.33496;95393.53;;;;
2020/04/16 03:36:55;;;;;;;4.849999;3.3;;;;;;;2.66;50.33496;95393.53;;;;
2020/04/16 03:37:55;;;;;;;4.849999;3.3;;;;;;;2.66;50.33496;95393.53;;;;
2020/04/16 03:38:56;;;;;;;4.849999;3.3;;;;;;;2.66;50.33496;95393.53;;;;
2020/04/16 03:39:56;;;;;;;4.849999;3.3;;;;;;;2.66;50.33496;95393.53;;;;
2020/04/16 03:40:56;;;;;;;4.849999;3.3;;;;;;;2.66;50.33496;95393.53;;;;
2020/04/16 03:41:58;;;;;;;4.849999;3.3;;;;;;;2.66;50.33496;95393.53;;;;
2020/04/16 03:42:59;;;;;;;5.9;3.45;;;;;;;2.47;50.21582;95396.73;;;;
2020/04/16 03:44:01;;;;;;;5.9;3.45;;;;;;;2.47;50.21582;95396.73;;;;
2020/04/16 03:45:03;;;;;;;5.9;3.45;;;;;;;2.47;50.21582;95396.73;;;;
2020/04/16 03:46:04;;;;;;;5.9;3.45;;;;;;;2.47;50.21582;95396.73;;;;
2020/04/16 03:47:05;;;;;;;5.9;3.45;;;;;;;2.47;50.21582;95396.73;;;;
2020/04/16 03:48:06;;;;;;;5.9;3.45;;;;;;;2.47;50.21582;95396.73;;;;
2020/04/16 03:49:06;;;;;;;5.9;3.45;;;;;;;2.47;50.21582;95396.73;;;;
2020/04/16 03:50:07;;;;;;;5.9;3.45;;;;;;;2.47;50.21582;95396.73;;;;
2020/04/16 03:51:08;;;;;;;5.9;3.45;;;;;;;2.47;50.21582;95396.73;;;;
2020/04/16 03:52:10;;;;;;;5.9;3.45;;;;;;;2.47;50.21582;95396.73;;;;
2020/04/16 03:53:11;;;;;;;5.9;3.45;;;;;;;2.47;50.21582;95396.73;;;;
2020/04/16 03:54:11;;;;;;;5.9;3.45;;;;;;;2.47;50.21582;95396.73;;;;
2020/04/16 03:55:12;;;;;;;5.9;3.45;;;;;;;2.47;50.21582;95396.73;;;;
2020/04/16 03:56:12;;;;;;;5.899999;3.4;;;;;;;2.41;50.59082;95392.05;;;;
2020/04/16 03:57:13;;;;;;;5.899999;3.4;;;;;;;2.41;50.59082;95392.05;;;;
2020/04/16 03:58:13;;;;;;;5.899999;3.4;;;;;;;2.41;50.59082;95392.05;;;;
2020/04/16 03:59:14;;;;;;;5.899999;3.4;;;;;;;2.41;50.59082;95392.05;;;;
2020/04/16 04:00:14;;;;;;;5.899999;3.4;;;;;;;2.41;50.59082;95392.05;;;;
2020/04/16 04:01:15;;;;;;;5.899999;3.4;;;;;;;2.41;50.59082;95392.05;;;;
2020/04/16 04:02:15;;;;;;;5.899999;3.4;;;;;;;2.41;50.59082;95392.05;;;;
2020/04/16 04:03:16;;;;;;;5.899999;3.4;;;;;;;2.41;50.59082;95392.05;;;;
2020/04/16 04:04:16;;;;;;;5.899999;3.4;;;;;;;2.41;50.59082;95392.05;;;;
2020/04/16 04:05:17;;;;;;;5.899999;3.4;;;;;;;2.41;50.59082;95392.05;;;;
2020/04/16 04:06:17;;;;;;;5.899999;3.4;;;;;;;2.41;50.59082;95392.05;;;;
2020/04/16 04:07:17;;;;;;;6.1;3.45;;;;;;;2.28;50.68164;95382.14;;;;
2020/04/16 04:08:18;;;;;;;6.1;3.45;;;;;;;2.28;50.68164;95382.14;;;;
2020/04/16 04:09:19;;;;;;;6.1;3.45;;;;;;;2.28;50.68164;95382.14;;;;
2020/04/16 04:10:20;;;;;;;6.1;3.45;;;;;;;2.28;50.68164;95382.14;;;;
2020/04/16 04:11:20;;;;;;;6.1;3.45;;;;;;;2.28;50.68164;95382.14;;;;
2020/04/16 04:12:20;;;;;;;6.1;3.45;;;;;;;2.28;50.68164;95382.14;;;;
2020/04/16 04:13:21;;;;;;;6.1;3.45;;;;;;;2.28;50.68164;95382.14;;;;
2020/04/16 04:14:21;;;;;;;6.1;3.45;;;;;;;2.28;50.68164;95382.14;;;;
2020/04/16 04:15:22;;;;;;;6.1;3.45;;;;;;;2.28;50.68164;95382.14;;;;
2020/04/16 04:16:22;;;;;;;6.1;3.45;;;;;;;2.28;50.68164;95382.14;;;;
2020/04/16 04:17:23;;;;;;;6.1;3.45;;;;;;;2.28;50.68164;95382.14;;;;
2020/04/16 04:18:23;;;;;;;6.1;3.45;;;;;;;2.28;50.68164;95382.14;;;;
2020/04/16 04:19:24;;;;;;;6.1;3.45;;;;;;;2.28;50.68164;95382.14;;;;
2020/04/16 04:20:24;;;;;;;6.1;3.45;;;;;;;2.28;50.68164;95382.14;;;;
2020/04/16 04:21:25;;;;;;;6.1;3.45;;;;;;;2.28;50.68164;95382.14;;;;
2020/04/16 04:22:25;;;;;;;6.1;3.45;;;;;;;2.28;50.68164;95382.14;;;;
2020/04/16 04:23:26;;;;;;;6.1;3.45;;;;;;;2.28;50.68164;95382.14;;;;
2020/04/16 04:24:26;;;;;;;6.1;3.45;;;;;;;2.28;50.68164;95382.14;;;;
2020/04/16 04:25:27;;;;;;;6.1;3.45;;;;;;;2.28;50.68164;95382.14;;;;
2020/04/16 04:26:27;;;;;;;6.1;3.45;;;;;;;2.28;50.68164;95382.14;;;;
2020/04/16 04:27:28;;;;;;;6.1;3.45;;;;;;;2.28;50.68164;95382.14;;;;
2020/04/16 04:28:28;;;;;;;4.15;3.25;;;;;;;2.17;50.51953;95384.84;;;;
2020/04/16 04:29:29;;;;;;;4.15;3.25;;;;;;;2.17;50.51953;95384.84;;;;
2020/04/16 04:30:29;;;;;;;4.15;3.25;;;;;;;2.17;50.51953;95384.84;;;;
2020/04/16 04:31:30;;;;;;;4.15;3.25;;;;;;;2.17;50.51953;95384.84;;;;
2020/04/16 04:32:30;;;;;;;4.15;3.25;;;;;;;2.17;50.51953;95384.84;;;;
2020/04/16 04:33:30;;;;;;;4.15;3.25;;;;;;;2.17;50.51953;95384.84;;;;
2020/04/16 04:34:31;;;;;;;4.15;3.25;;;;;;;2.17;50.51953;95384.84;;;;
2020/04/16 04:35:31;;;;;;;4.15;3.25;;;;;;;2.17;50.51953;95384.84;;;;
2020/04/16 04:36:32;;;;;;;4.15;3.25;;;;;;;2.17;50.51953;95384.84;;;;
2020/04/16 04:37:32;;;;;;;4.15;3.25;;;;;;;2.17;50.51953;95384.84;;;;
2020/04/16 04:38:33;;;;;;;6.95;3.400001;;;;;;;2.07;50.65625;95410.8;;;;
2020/04/16 04:39:33;;;;;;;6.95;3.400001;;;;;;;2.07;50.65625;95410.8;;;;
2020/04/16 04:40:33;;;;;;;6.95;3.400001;;;;;;;2.07;50.65625;95410.8;;;;
2020/04/16 04:41:34;;;;;;;6.95;3.400001;;;;;;;2.07;50.65625;95410.8;;;;
2020/04/16 04:42:35;;;;;;;6.95;3.400001;;;;;;;2.07;50.65625;95410.8;;;;
2020/04/16 04:43:47;;;;;;;6.95;3.400001;;;;;;;2.07;50.65625;95410.8;;;;
2020/04/16 04:44:49;;;;;;;6.95;3.400001;;;;;;;2.07;50.65625;95410.8;;;;
2020/04/16 04:45:52;;;;;;;6.95;3.400001;;;;;;;2.07;50.65625;95410.8;;;;
2020/04/16 04:46:59;;;;;;;6.95;3.400001;;;;;;;2.07;50.65625;95410.8;;;;
2020/04/16 04:47:59;;;;;;;6.95;3.400001;;;;;;;2.07;50.65625;95410.8;;;;
2020/04/16 04:49:00;;;;;;;6.95;3.400001;;;;;;;2.07;50.65625;95410.8;;;;
2020/04/16 04:50:00;;;;;;;5.15;3.55;;;;;;;2.18;50.72168;95419.37;;;;
2020/04/16 04:51:01;;;;;;;5.15;3.55;;;;;;;2.18;50.72168;95419.37;;;;
2020/04/16 04:52:01;;;;;;;5.15;3.55;;;;;;;2.18;50.72168;95419.37;;;;
2020/04/16 04:53:02;;;;;;;5.15;3.55;;;;;;;2.18;50.72168;95419.37;;;;
2020/04/16 04:54:02;;;;;;;5.15;3.55;;;;;;;2.18;50.72168;95419.37;;;;
2020/04/16 04:55:02;;;;;;;5.15;3.55;;;;;;;2.18;50.72168;95419.37;;;;
2020/04/16 04:56:03;;;;;;;5.15;3.55;;;;;;;2.18;50.72168;95419.37;;;;
2020/04/16 04:57:03;;;;;;;5.15;3.55;;;;;;;2.18;50.72168;95419.37;;;;
2020/04/16 04:58:04;;;;;;;5.15;3.55;;;;;;;2.18;50.72168;95419.37;;;;
2020/04/16 04:59:04;;;;;;;5.15;3.55;;;;;;;2.18;50.72168;95419.37;;;;
2020/04/16 05:00:06;;;;;;;7.499999;3.3;;;;;;;2.26;50.74219;95411.22;;;;
2020/04/16 05:01:08;;;;;;;7.499999;3.3;;;;;;;2.26;50.74219;95411.22;;;;
2020/04/16 05:02:08;;;;;;;7.499999;3.3;;;;;;;2.26;50.74219;95411.22;;;;
2020/04/16 05:03:09;;;;;;;7.499999;3.3;;;;;;;2.26;50.74219;95411.22;;;;
2020/04/16 05:04:09;;;;;;;7.499999;3.3;;;;;;;2.26;50.74219;95411.22;;;;
2020/04/16 05:05:09;;;;;;;7.499999;3.3;;;;;;;2.26;50.74219;95411.22;;;;
2020/04/16 05:06:10;;;;;;;7.499999;3.3;;;;;;;2.26;50.74219;95411.22;;;;
2020/04/16 05:07:10;;;;;;;7.499999;3.3;;;;;;;2.26;50.74219;95411.22;;;;
2020/04/16 05:08:11;;;;;;;7.499999;3.3;;;;;;;2.26;50.74219;95411.22;;;;
2020/04/16 05:09:11;;;;;;;7.499999;3.3;;;;;;;2.26;50.74219;95411.22;;;;
2020/04/16 05:10:12;;;;;;;7.499999;3.3;;;;;;;2.26;50.74219;95411.22;;;;
2020/04/16 05:11:12;;;;;;;7.950001;3.7;;;;;;;2.49;50.62109;95420.87;;;;
2020/04/16 05:12:13;;;;;;;7.950001;3.7;;;;;;;2.49;50.62109;95420.87;;;;
2020/04/16 05:13:13;;;;;;;7.950001;3.7;;;;;;;2.49;50.62109;95420.87;;;;
2020/04/16 05:14:14;;;;;;;7.950001;3.7;;;;;;;2.49;50.62109;95420.87;;;;
2020/04/16 05:15:14;;;;;;;7.950001;3.7;;;;;;;2.49;50.62109;95420.87;;;;
2020/04/16 05:16:15;;;;;;;7.950001;3.7;;;;;;;2.49;50.62109;95420.87;;;;
2020/04/16 05:17:15;;;;;;;7.950001;3.7;;;;;;;2.49;50.62109;95420.87;;;;
2020/04/16 05:18:16;;;;;;;7.950001;3.7;;;;;;;2.49;50.62109;95420.87;;;;
2020/04/16 05:19:16;;;;;;;7.950001;3.7;;;;;;;2.49;50.62109;95420.87;;;;
2020/04/16 05:20:16;;;;;;;7.950001;3.7;;;;;;;2.49;50.62109;95420.87;;;;
2020/04/16 05:21:17;;;;;;;6.55;3.25;;;;;;;2.7;50.69824;95405.07;;;;
2020/04/16 05:22:17;;;;;;;6.55;3.25;;;;;;;2.7;50.69824;95405.07;;;;
2020/04/16 05:23:18;;;;;;;6.55;3.25;;;;;;;2.7;50.69824;95405.07;;;;
2020/04/16 05:24:18;;;;;;;6.55;3.25;;;;;;;2.7;50.69824;95405.07;;;;
2020/04/16 05:25:18;;;;;;;6.55;3.25;;;;;;;2.7;50.69824;95405.07;;;;
2020/04/16 05:26:19;;;;;;;6.55;3.25;;;;;;;2.7;50.69824;95405.07;;;;
2020/04/16 05:27:19;;;;;;;6.55;3.25;;;;;;;2.7;50.69824;95405.07;;;;
2020/04/16 05:28:20;;;;;;;6.55;3.25;;;;;;;2.7;50.69824;95405.07;;;;
2020/04/16 05:29:20;;;;;;;6.55;3.25;;;;;;;2.7;50.69824;95405.07;;;;
2020/04/16 05:30:21;;;;;;;6.55;3.25;;;;;;;2.7;50.69824;95405.07;;;;
2020/04/16 05:31:21;;;;;;;6.55;3.25;;;;;;;2.7;50.69824;95405.07;;;;
2020/04/16 05:32:21;;;;;;;8.1;3.95;;;;;;;3.1;50.70313;95411.63;;;;
2020/04/16 05:33:22;;;;;;;8.1;3.95;;;;;;;3.1;50.70313;95411.63;;;;
2020/04/16 05:34:22;;;;;;;8.1;3.95;;;;;;;3.1;50.70313;95411.63;;;;
2020/04/16 05:35:23;;;;;;;8.1;3.95;;;;;;;3.1;50.70313;95411.63;;;;
2020/04/16 05:36:23;;;;;;;8.1;3.95;;;;;;;3.1;50.70313;95411.63;;;;
2020/04/16 05:37:24;;;;;;;8.1;3.95;;;;;;;3.1;50.70313;95411.63;;;;
2020/04/16 05:38:24;;;;;;;8.1;3.95;;;;;;;3.1;50.70313;95411.63;;;;
2020/04/16 05:39:25;;;;;;;8.1;3.95;;;;;;;3.1;50.70313;95411.63;;;;
2020/04/16 05:40:25;;;;;;;8.1;3.95;;;;;;;3.1;50.70313;95411.63;;;;
2020/04/16 05:41:26;;;;;;;8.1;3.95;;;;;;;3.1;50.70313;95411.63;;;;
2020/04/16 05:42:26;;;;;;;7.95;3.8;;;;;;;3.64;50.66211;95424.85;;;;
2020/04/16 05:43:26;;;;;;;7.95;3.8;;;;;;;3.64;50.66211;95424.85;;;;
2020/04/16 05:44:27;;;;;;;7.95;3.8;;;;;;;3.64;50.66211;95424.85;;;;
2020/04/16 05:45:27;;;;;;;7.55;4.05;;;;;;;3.89;51.62402;95416.86;;;;
2020/04/16 05:46:28;;;;;;;7.55;4.05;;;;;;;3.89;51.62402;95416.86;;;;
2020/04/16 05:47:28;;;;;;;7.55;4.05;;;;;;;3.89;51.62402;95416.86;;;;
2020/04/16 05:48:47;;;;;;;7.55;4.05;;;;;;;3.89;51.62402;95416.86;;;;